Time;durP1;ratioP1;P1;durP2;ratioP2;P2;SDS_P1;SDS_P2;PMS_P1;PMS_P2;Temp;Humidity;BMP_temperature;BMP_pressure;BME280_temperature;BME280_humidity;BME280_pressure;Samples;Min_cycle;Max_cycle;Signal;HPM_P1;HPM_P2
2024/02/03 00:04:00;;;;;;;15.77;9.80;;;;;;;;;;10392317;28;20281;-58
2024/02/03 00:09:01;;;;;;;17.15;9.85;;;;;;;;;;10404857;28;20389;-58
2024/02/03 00:14:01;;;;;;;15.27;10.02;;;;;;;;;;10404719;28;20029;-58
2024/02/03 00:19:02;;;;;;;16.85;9.13;;;;;;;;;;10405024;28;20040;-58
2024/02/03 00:24:03;;;;;;;14.18;9.77;;;;;;;;;;10391601;28;20215;-58
2024/02/03 00:29:03;;;;;;;20.42;10.30;;;;;;;;;;10404552;28;20045;-59
2024/02/03 00:34:04;;;;;;;14.55;9.50;;;;;;;;;;10404912;28;20037;-59
2024/02/03 00:39:06;;;;;;;18.25;10.77;;;;;;;;;;10404623;28;20287;-58
2024/02/03 00:44:07;;;;;;;13.27;9.27;;;;;;;;;;10410643;28;20710;-58
2024/02/03 00:49:07;;;;;;;11.30;8.57;;;;;;;;;;10398863;28;20083;-58
2024/02/03 00:54:08;;;;;;;16.17;9.75;;;;;;;;;;10410757;28;20033;-58
2024/02/03 00:59:09;;;;;;;21.90;9.57;;;;;;;;;;10410123;28;20033;-58
2024/02/03 01:04:09;;;;;;;14.98;9.40;;;;;;;;;;10411337;28;20025;-58
2024/02/03 01:09:10;;;;;;;13.70;8.90;;;;;;;;;;10411284;28;20036;-58
2024/02/03 01:14:10;;;;;;;13.77;8.85;;;;;;;;;;10410640;28;20082;-58
2024/02/03 01:19:12;;;;;;;16.17;9.30;;;;;;;;;;10407300;28;20037;-58
2024/02/03 01:24:12;;;;;;;15.55;8.98;;;;;;;;;;10406017;28;20022;-58
2024/02/03 01:29:13;;;;;;;19.15;9.23;;;;;;;;;;10399228;28;20045;-58
2024/02/03 01:34:14;;;;;;;13.52;8.63;;;;;;;;;;10408623;28;20026;-58
2024/02/03 01:39:14;;;;;;;11.77;8.65;;;;;;;;;;10400456;28;20060;-58
2024/02/03 01:44:15;;;;;;;14.30;9.30;;;;;;;;;;10409253;28;20100;-58
2024/02/03 01:49:16;;;;;;;12.60;9.02;;;;;;;;;;10397363;28;20376;-58
2024/02/03 01:54:17;;;;;;;12.85;9.15;;;;;;;;;;10404345;28;20108;-58
2024/02/03 01:59:18;;;;;;;14.18;8.75;;;;;;;;;;10390894;28;20025;-58
2024/02/03 02:04:19;;;;;;;15.82;9.55;;;;;;;;;;10387669;28;20028;-58
2024/02/03 02:09:25;;;;;;;12.85;8.88;;;;;;;;;;10395917;28;20103;-58
2024/02/03 02:14:26;;;;;;;11.88;8.73;;;;;;;;;;10403048;28;20495;-58
2024/02/03 02:19:27;;;;;;;14.10;8.88;;;;;;;;;;10400971;28;20025;-58
2024/02/03 02:24:27;;;;;;;14.82;8.75;;;;;;;;;;10399907;28;20025;-58
2024/02/03 02:29:28;;;;;;;16.25;9.52;;;;;;;;;;10406218;28;20030;-58
2024/02/03 02:34:29;;;;;;;14.25;9.45;;;;;;;;;;10407245;28;20410;-58
2024/02/03 02:39:29;;;;;;;10.68;8.40;;;;;;;;;;10407318;28;20037;-58
2024/02/03 02:44:30;;;;;;;15.55;9.00;;;;;;;;;;10407111;28;20091;-58
2024/02/03 02:49:31;;;;;;;13.48;9.25;;;;;;;;;;10382890;28;20041;-58
2024/02/03 02:54:31;;;;;;;15.60;8.85;;;;;;;;;;10400107;28;20032;-58
2024/02/03 02:59:32;;;;;;;14.07;9.52;;;;;;;;;;10405452;28;20033;-58
2024/02/03 03:04:33;;;;;;;14.85;9.25;;;;;;;;;;10405974;28;20041;-58
2024/02/03 03:09:33;;;;;;;13.40;9.05;;;;;;;;;;10406435;28;20025;-58
2024/02/03 03:14:34;;;;;;;16.60;9.60;;;;;;;;;;10405860;28;20572;-58
2024/02/03 03:19:37;;;;;;;14.13;9.18;;;;;;;;;;10405909;28;20079;-58
2024/02/03 03:24:38;;;;;;;13.00;8.57;;;;;;;;;;10405615;28;20040;-58
2024/02/03 03:29:38;;;;;;;12.07;8.68;;;;;;;;;;10405765;28;20026;-58
2024/02/03 03:34:42;;;;;;;17.80;8.85;;;;;;;;;;10405448;28;20036;-58
2024/02/03 03:39:43;;;;;;;20.25;9.23;;;;;;;;;;10392148;28;20485;-59
2024/02/03 03:44:43;;;;;;;11.88;8.80;;;;;;;;;;10404981;28;20033;-58
2024/02/03 03:49:44;;;;;;;14.25;8.50;;;;;;;;;;10404126;28;20436;-58
2024/02/03 03:54:46;;;;;;;12.73;8.85;;;;;;;;;;10395948;28;20053;-58
2024/02/03 03:59:46;;;;;;;13.35;8.88;;;;;;;;;;10404323;28;20393;-58
2024/02/03 04:04:47;;;;;;;11.00;8.02;;;;;;;;;;10405428;28;20374;-58
2024/02/03 04:09:48;;;;;;;13.98;9.10;;;;;;;;;;10395738;28;20021;-58
2024/02/03 04:14:48;;;;;;;12.68;8.05;;;;;;;;;;10400591;28;20022;-59
2024/02/03 04:19:49;;;;;;;14.00;8.30;;;;;;;;;;10412810;28;20029;-58
2024/02/03 04:24:50;;;;;;;11.75;8.18;;;;;;;;;;10399774;28;20033;-58
2024/02/03 04:29:50;;;;;;;10.80;7.75;;;;;;;;;;10412713;28;20322;-58
2024/02/03 04:34:51;;;;;;;14.40;8.60;;;;;;;;;;10411643;28;20029;-58
2024/02/03 04:39:52;;;;;;;13.13;8.57;;;;;;;;;;10410991;28;20049;-58
2024/02/03 04:44:52;;;;;;;11.32;7.90;;;;;;;;;;10411851;28;20041;-58
2024/02/03 04:49:53;;;;;;;11.65;8.18;;;;;;;;;;10411861;28;20032;-58
2024/02/03 04:54:53;;;;;;;11.43;8.10;;;;;;;;;;10402263;28;20042;-58
2024/02/03 04:59:54;;;;;;;10.38;7.75;;;;;;;;;;10410522;28;20076;-58
2024/02/03 05:04:55;;;;;;;13.25;7.68;;;;;;;;;;10411033;28;20037;-59
2024/02/03 05:09:55;;;;;;;11.10;7.93;;;;;;;;;;10411055;28;20022;-58
2024/02/03 05:14:56;;;;;;;11.77;8.18;;;;;;;;;;10410899;28;20032;-58
2024/02/03 05:19:56;;;;;;;11.50;7.63;;;;;;;;;;10409560;28;20021;-59
2024/02/03 05:24:57;;;;;;;14.98;7.63;;;;;;;;;;10409793;28;20037;-58
2024/02/03 05:29:57;;;;;;;13.30;7.25;;;;;;;;;;10406860;28;20025;-59
2024/02/03 05:34:58;;;;;;;12.13;7.57;;;;;;;;;;10410012;28;20033;-58
2024/02/03 05:39:58;;;;;;;11.10;7.65;;;;;;;;;;10409602;28;20087;-58
2024/02/03 05:44:59;;;;;;;10.88;7.75;;;;;;;;;;10400894;28;20042;-58
2024/02/03 05:50:00;;;;;;;12.45;7.30;;;;;;;;;;10409754;28;20028;-59
2024/02/03 05:55:00;;;;;;;10.43;7.57;;;;;;;;;;10406523;28;20022;-58
2024/02/03 06:00:01;;;;;;;10.70;8.00;;;;;;;;;;10408622;28;20033;-58
2024/02/03 06:05:01;;;;;;;11.93;7.68;;;;;;;;;;10409458;28;20037;-58
2024/02/03 06:10:02;;;;;;;9.57;7.55;;;;;;;;;;10409020;28;20037;-58
2024/02/03 06:15:03;;;;;;;12.05;7.68;;;;;;;;;;10408197;28;20439;-58
2024/02/03 06:20:05;;;;;;;10.43;7.55;;;;;;;;;;10407762;28;20477;-58
2024/02/03 06:25:06;;;;;;;10.57;7.47;;;;;;;;;;10408471;28;20030;-58
2024/02/03 06:30:07;;;;;;;10.35;7.45;;;;;;;;;;10407943;28;20061;-58
2024/02/03 06:35:08;;;;;;;9.43;7.07;;;;;;;;;;10406461;28;20064;-58
2024/02/03 06:40:09;;;;;;;9.43;7.10;;;;;;;;;;10407206;28;20133;-58
2024/02/03 06:45:11;;;;;;;9.05;7.20;;;;;;;;;;10406557;28;20030;-58
2024/02/03 06:50:12;;;;;;;10.95;7.00;;;;;;;;;;10407057;28;20049;-60
2024/02/03 06:55:12;;;;;;;12.05;7.10;;;;;;;;;;10387751;28;20030;-59
2024/02/03 07:00:13;;;;;;;9.73;7.20;;;;;;;;;;10407389;28;20165;-58
2024/02/03 07:05:14;;;;;;;8.48;6.80;;;;;;;;;;10407220;28;20069;-58
2024/02/03 07:10:15;;;;;;;10.57;6.68;;;;;;;;;;10406965;28;20042;-59
2024/02/03 07:15:15;;;;;;;9.63;7.03;;;;;;;;;;10406583;28;20041;-59
2024/02/03 07:20:16;;;;;;;14.75;6.45;;;;;;;;;;10406640;28;20055;-59
2024/02/03 07:25:17;;;;;;;11.68;7.22;;;;;;;;;;10400087;28;20408;-59
2024/02/03 07:30:17;;;;;;;11.35;7.05;;;;;;;;;;10394941;28;20388;-59
2024/02/03 07:35:18;;;;;;;12.98;6.95;;;;;;;;;;10377483;28;20037;-59
2024/02/03 07:40:18;;;;;;;9.10;6.90;;;;;;;;;;10387114;28;20281;-59
2024/02/03 07:45:19;;;;;;;8.38;6.82;;;;;;;;;;10393905;28;20075;-59
2024/02/03 07:50:21;;;;;;;8.65;6.35;;;;;;;;;;10387443;28;20034;-58
2024/02/03 07:55:21;;;;;;;10.23;7.05;;;;;;;;;;10392647;28;20037;-59
2024/02/03 08:00:22;;;;;;;11.18;7.47;;;;;;;;;;10404944;28;20385;-59
2024/02/03 08:05:23;;;;;;;7.80;6.15;;;;;;;;;;10405306;28;20029;-58
2024/02/03 08:10:23;;;;;;;11.27;6.75;;;;;;;;;;10403146;28;20025;-59
2024/02/03 08:15:25;;;;;;;9.43;6.43;;;;;;;;;;10382538;28;20034;-59
2024/02/03 08:20:25;;;;;;;11.68;6.50;;;;;;;;;;10375135;28;20490;-59
2024/02/03 08:25:26;;;;;;;8.75;6.53;;;;;;;;;;10378936;28;20042;-59
2024/02/03 08:30:27;;;;;;;12.32;7.93;;;;;;;;;;10402233;28;20485;-59
2024/02/03 08:35:27;;;;;;;18.60;10.80;;;;;;;;;;10381917;28;20108;-61
2024/02/03 08:40:28;;;;;;;22.05;11.70;;;;;;;;;;10371811;28;20586;-61
2024/02/03 08:45:29;;;;;;;25.83;11.98;;;;;;;;;;10378192;28;20401;-61
2024/02/03 08:50:30;;;;;;;31.98;12.88;;;;;;;;;;10390877;28;20034;-61
2024/02/03 08:55:30;;;;;;;19.05;11.50;;;;;;;;;;10394920;28;20117;-61
2024/02/03 09:00:31;;;;;;;23.80;12.15;;;;;;;;;;10387257;28;20052;-60
2024/02/03 09:05:31;;;;;;;21.00;12.50;;;;;;;;;;10393231;28;20026;-61
2024/02/03 09:10:32;;;;;;;21.35;11.02;;;;;;;;;;10392049;28;21480;-61
2024/02/03 09:15:32;;;;;;;25.55;10.75;;;;;;;;;;10401017;28;20037;-61
2024/02/03 09:20:33;;;;;;;19.48;10.40;;;;;;;;;;10395666;28;20021;-61
2024/02/03 09:25:34;;;;;;;19.13;10.70;;;;;;;;;;10385816;28;20036;-62
2024/02/03 09:30:34;;;;;;;20.95;10.40;;;;;;;;;;10395151;28;20087;-61
2024/02/03 09:35:36;;;;;;;21.48;10.00;;;;;;;;;;10396868;28;20153;-62
2024/02/03 09:40:36;;;;;;;18.50;9.75;;;;;;;;;;10401470;28;20491;-62
2024/02/03 09:45:37;;;;;;;29.77;9.95;;;;;;;;;;10406024;28;20040;-62
2024/02/03 09:50:40;;;;;;;19.48;9.52;;;;;;;;;;10406272;28;20103;-62
2024/02/03 09:55:43;;;;;;;26.17;9.85;;;;;;;;;;10373167;28;20056;-62
2024/02/03 10:00:44;;;;;;;19.15;9.32;;;;;;;;;;10374435;28;20025;-61
2024/02/03 10:05:45;;;;;;;18.90;9.35;;;;;;;;;;10368701;28;20061;-60
2024/02/03 10:10:53;;;;;;;19.88;10.00;;;;;;;;;;10373038;28;20072;-60
2024/02/03 10:16:04;;;;;;;11.87;7.87;;;;;;;;;;10361346;28;20393;-60
2024/02/03 10:21:05;;;;;;;18.52;8.90;;;;;;;;;;10378164;28;20034;-60
2024/02/03 10:26:05;;;;;;;13.77;8.27;;;;;;;;;;10377437;28;20029;-60
2024/02/03 10:31:06;;;;;;;13.75;8.50;;;;;;;;;;10343577;28;20088;-60
2024/02/03 10:36:07;;;;;;;14.88;8.65;;;;;;;;;;10378317;28;20038;-60
2024/02/03 10:41:12;;;;;;;15.45;8.02;;;;;;;;;;10362875;28;20030;-60
2024/02/03 10:46:13;;;;;;;11.85;7.78;;;;;;;;;;10343154;28;20030;-61
2024/02/03 10:51:24;;;;;;;14.40;7.88;;;;;;;;;;10349435;28;20029;-61
2024/02/03 10:56:30;;;;;;;17.48;8.02;;;;;;;;;;10335989;28;20043;-59
2024/02/03 11:01:36;;;;;;;21.10;7.93;;;;;;;;;;10356425;28;20038;-59
2024/02/03 11:06:37;;;;;;;11.18;6.95;;;;;;;;;;10350018;28;20521;-60
2024/02/03 11:11:46;;;;;;;12.63;7.22;;;;;;;;;;10366780;28;20026;-60
2024/02/03 11:16:57;;;;;;;12.90;7.20;;;;;;;;;;10360145;28;20037;-60
2024/02/03 11:22:00;;;;;;;11.15;7.07;;;;;;;;;;10353794;28;20253;-60
2024/02/03 11:27:08;;;;;;;12.95;7.63;;;;;;;;;;10351931;28;20474;-60
2024/02/03 11:32:10;;;;;;;11.70;6.40;;;;;;;;;;10361644;28;20030;-62
2024/02/03 11:37:14;;;;;;;8.43;6.07;;;;;;;;;;10399091;22;20075;-65
2024/02/03 11:42:15;;;;;;;12.93;6.50;;;;;;;;;;10404299;28;20026;-66
2024/02/03 11:47:19;;;;;;;10.15;6.40;;;;;;;;;;10372206;28;20026;-59
2024/02/03 11:52:20;;;;;;;11.73;6.35;;;;;;;;;;10401472;28;20033;-67
2024/02/03 11:57:21;;;;;;;10.60;6.57;;;;;;;;;;10381761;28;20036;-62
2024/02/03 12:02:22;;;;;;;11.65;6.93;;;;;;;;;;10389835;28;20036;-62
2024/02/03 12:07:22;;;;;;;7.18;5.88;;;;;;;;;;10403955;28;20388;-62
2024/02/03 12:12:24;;;;;;;11.95;6.07;;;;;;;;;;10403174;28;20473;-62
2024/02/03 12:17:25;;;;;;;11.40;6.63;;;;;;;;;;10386725;28;20117;-62
2024/02/03 12:22:26;;;;;;;11.13;6.70;;;;;;;;;;10404317;28;20036;-62
2024/02/03 12:27:27;;;;;;;11.80;6.47;;;;;;;;;;10403280;28;20044;-62
2024/02/03 12:32:27;;;;;;;9.73;6.30;;;;;;;;;;10410068;28;20033;-62
2024/02/03 12:37:28;;;;;;;7.78;6.10;;;;;;;;;;10408139;28;20045;-62
2024/02/03 12:42:29;;;;;;;12.00;6.78;;;;;;;;;;10398050;28;20030;-62
2024/02/03 12:47:30;;;;;;;9.20;5.75;;;;;;;;;;10410460;28;20112;-62
2024/02/03 12:52:30;;;;;;;9.00;6.18;;;;;;;;;;10409640;28;20033;-62
2024/02/03 12:57:31;;;;;;;8.88;6.22;;;;;;;;;;10407539;28;20037;-62
2024/02/03 13:02:32;;;;;;;9.23;6.13;;;;;;;;;;10410205;28;20083;-62
2024/02/03 13:07:33;;;;;;;9.95;5.55;;;;;;;;;;10408608;28;20376;-62
2024/02/03 13:12:34;;;;;;;8.27;6.03;;;;;;;;;;10409285;28;20031;-62
2024/02/03 13:17:34;;;;;;;10.95;5.95;;;;;;;;;;10408675;28;20037;-62
2024/02/03 13:22:35;;;;;;;8.98;6.07;;;;;;;;;;10408935;28;20026;-62
2024/02/03 13:27:35;;;;;;;8.15;5.55;;;;;;;;;;10407358;28;20025;-62
2024/02/03 13:32:36;;;;;;;11.82;5.60;;;;;;;;;;10430633;28;20030;-62
2024/02/03 13:37:39;;;;;;;8.85;5.68;;;;;;;;;;10410265;28;20176;-62
2024/02/03 13:42:51;;;;;;;7.03;5.60;;;;;;;;;;10407986;28;20029;-61
2024/02/03 13:47:52;;;;;;;8.15;5.50;;;;;;;;;;10415442;28;20026;-61
2024/02/03 13:52:53;;;;;;;8.13;6.22;;;;;;;;;;10407826;28;20021;-61
2024/02/03 13:57:53;;;;;;;7.40;5.30;;;;;;;;;;10406169;28;20029;-61
2024/02/03 14:02:54;;;;;;;9.55;6.50;;;;;;;;;;10405511;28;20022;-61
2024/02/03 14:07:54;;;;;;;6.30;5.03;;;;;;;;;;10407122;28;20048;-61
2024/02/03 14:12:55;;;;;;;11.23;6.25;;;;;;;;;;10408470;28;20385;-61
2024/02/03 14:17:56;;;;;;;9.00;5.63;;;;;;;;;;10397917;28;20025;-61
2024/02/03 14:22:57;;;;;;;9.77;5.72;;;;;;;;;;10408528;28;20401;-61
2024/02/03 14:27:57;;;;;;;9.43;5.63;;;;;;;;;;10406063;28;20415;-61
2024/02/03 14:32:58;;;;;;;7.53;5.75;;;;;;;;;;10406917;28;20029;-61
2024/02/03 14:37:58;;;;;;;8.65;5.70;;;;;;;;;;10404872;28;20060;-61
2024/02/03 14:42:59;;;;;;;9.35;4.90;;;;;;;;;;10406964;28;20037;-62
2024/02/03 14:47:59;;;;;;;7.22;5.00;;;;;;;;;;10406552;28;20025;-62
2024/02/03 14:53:00;;;;;;;10.80;5.53;;;;;;;;;;10405573;28;20034;-61
2024/02/03 14:58:01;;;;;;;6.95;5.20;;;;;;;;;;10402103;28;20583;-61
2024/02/03 15:03:02;;;;;;;8.95;5.43;;;;;;;;;;10405325;28;20480;-61
2024/02/03 15:08:04;;;;;;;8.95;5.68;;;;;;;;;;10397890;28;20037;-61
2024/02/03 15:13:04;;;;;;;8.18;5.45;;;;;;;;;;10402086;28;20095;-62
2024/02/03 15:18:06;;;;;;;5.63;4.38;;;;;;;;;;10402233;28;20030;-61
2024/02/03 15:23:06;;;;;;;8.32;5.22;;;;;;;;;;10403999;28;20029;-62
2024/02/03 15:28:07;;;;;;;7.13;5.07;;;;;;;;;;10404836;28;20716;-59
2024/02/03 15:33:08;;;;;;;6.68;5.25;;;;;;;;;;10404545;28;20033;-62
2024/02/03 15:38:08;;;;;;;6.82;5.07;;;;;;;;;;10403926;28;20060;-61
2024/02/03 15:43:09;;;;;;;12.10;5.40;;;;;;;;;;10405236;28;20030;-62
2024/02/03 15:48:09;;;;;;;7.35;5.53;;;;;;;;;;10402677;28;20025;-61
2024/02/03 15:53:10;;;;;;;6.97;5.13;;;;;;;;;;10402442;28;20036;-59
2024/02/03 15:58:11;;;;;;;7.18;4.78;;;;;;;;;;10404012;28;20034;-61
2024/02/03 16:03:12;;;;;;;8.65;5.32;;;;;;;;;;10404108;28;20025;-59
2024/02/03 16:08:12;;;;;;;12.32;5.78;;;;;;;;;;10412367;28;20041;-61
2024/02/03 16:13:15;;;;;;;5.97;4.93;;;;;;;;;;10421215;28;20025;-61
2024/02/03 16:18:16;;;;;;;7.32;4.82;;;;;;;;;;10411713;28;20028;-60
2024/02/03 16:23:16;;;;;;;8.48;5.32;;;;;;;;;;10407317;28;20040;-60
2024/02/03 16:28:17;;;;;;;5.35;4.85;;;;;;;;;;10412300;28;20032;-61
2024/02/03 16:33:18;;;;;;;6.15;5.07;;;;;;;;;;10412340;28;20018;-62
2024/02/03 16:38:18;;;;;;;7.28;4.85;;;;;;;;;;10410876;28;20068;-62
2024/02/03 16:43:19;;;;;;;7.22;5.40;;;;;;;;;;10409819;28;20032;-63
2024/02/03 16:48:21;;;;;;;5.70;4.65;;;;;;;;;;10406249;28;20561;-62
2024/02/03 16:53:22;;;;;;;5.53;4.38;;;;;;;;;;10412061;28;20044;-62
2024/02/03 16:58:23;;;;;;;7.13;4.55;;;;;;;;;;10411015;28;20037;-62
2024/02/03 17:03:23;;;;;;;6.18;4.50;;;;;;;;;;10411940;28;20526;-63
2024/02/03 17:08:24;;;;;;;5.95;4.57;;;;;;;;;;10414225;28;20042;-62
2024/02/03 17:13:24;;;;;;;4.57;4.07;;;;;;;;;;10410844;28;20025;-62
2024/02/03 17:18:25;;;;;;;6.72;5.00;;;;;;;;;;10409624;28;20041;-62
2024/02/03 17:23:25;;;;;;;9.25;5.50;;;;;;;;;;10410343;28;20026;-62
2024/02/03 17:28:26;;;;;;;7.22;4.95;;;;;;;;;;10415405;28;20025;-62
2024/02/03 17:33:27;;;;;;;10.05;5.43;;;;;;;;;;10416163;28;20029;-62
2024/02/03 17:38:28;;;;;;;6.10;4.50;;;;;;;;;;10421563;28;20045;-62
2024/02/03 17:43:28;;;;;;;10.77;4.97;;;;;;;;;;10408792;28;20477;-59
2024/02/03 17:48:29;;;;;;;7.40;5.20;;;;;;;;;;10409807;28;20033;-60
2024/02/03 17:53:29;;;;;;;6.45;4.78;;;;;;;;;;10408527;28;20025;-59
2024/02/03 17:58:30;;;;;;;10.55;4.95;;;;;;;;;;10409432;28;20054;-61
2024/02/03 18:03:31;;;;;;;5.93;4.57;;;;;;;;;;10409260;28;20017;-60
2024/02/03 18:08:31;;;;;;;6.65;4.35;;;;;;;;;;10408917;28;20022;-62
2024/02/03 18:13:32;;;;;;;14.15;5.28;;;;;;;;;;10409368;28;20531;-59
2024/02/03 18:18:33;;;;;;;24.40;5.63;;;;;;;;;;10407673;28;20396;-60
2024/02/03 18:23:33;;;;;;;20.05;7.05;;;;;;;;;;10407822;28;20531;-61
2024/02/03 18:28:34;;;;;;;14.90;5.18;;;;;;;;;;10408822;28;20021;-59
2024/02/03 18:33:34;;;;;;;10.85;5.65;;;;;;;;;;10406099;28;20091;-64
2024/02/03 18:38:35;;;;;;;11.07;5.30;;;;;;;;;;10406404;28;20497;-64
2024/02/03 18:43:36;;;;;;;15.90;5.60;;;;;;;;;;10408458;28;20120;-64
2024/02/03 18:48:37;;;;;;;15.55;5.88;;;;;;;;;;10401017;28;20577;-58
2024/02/03 18:53:37;;;;;;;16.02;6.13;;;;;;;;;;10401389;28;20362;-64
2024/02/03 18:58:38;;;;;;;12.32;6.00;;;;;;;;;;10405465;28;20120;-64
2024/02/03 19:03:40;;;;;;;16.42;5.88;;;;;;;;;;10406606;28;20101;-64
2024/02/03 19:08:42;;;;;;;11.75;5.65;;;;;;;;;;10405949;28;20025;-64
2024/02/03 19:13:43;;;;;;;11.70;5.63;;;;;;;;;;10406467;28;20043;-63
2024/02/03 19:18:43;;;;;;;14.52;5.35;;;;;;;;;;10406132;28;20381;-59
2024/02/03 19:23:44;;;;;;;11.50;5.30;;;;;;;;;;10406431;28;20025;-59
2024/02/03 19:28:44;;;;;;;12.80;5.93;;;;;;;;;;10402359;28;20025;-60
2024/02/03 19:33:45;;;;;;;8.43;4.93;;;;;;;;;;10405142;28;20260;-60
2024/02/03 19:38:46;;;;;;;18.20;6.00;;;;;;;;;;10404362;28;20041;-62
2024/02/03 19:43:46;;;;;;;11.50;5.63;;;;;;;;;;10405063;28;20029;-59
2024/02/03 19:48:47;;;;;;;14.00;5.93;;;;;;;;;;10405160;28;20021;-60
2024/02/03 19:53:47;;;;;;;10.45;4.95;;;;;;;;;;10404493;28;20104;-60
2024/02/03 19:58:48;;;;;;;7.20;4.90;;;;;;;;;;10388405;28;20365;-61
2024/02/03 20:03:49;;;;;;;7.70;4.93;;;;;;;;;;10405358;28;20519;-62
2024/02/03 20:08:49;;;;;;;15.02;5.55;;;;;;;;;;10402568;28;20492;-60
2024/02/03 20:13:50;;;;;;;20.45;5.57;;;;;;;;;;10403586;28;20026;-61
2024/02/03 20:18:50;;;;;;;17.77;5.78;;;;;;;;;;10394323;28;20033;-61
2024/02/03 20:23:51;;;;;;;10.77;5.00;;;;;;;;;;10390663;28;20037;-58
2024/02/03 20:28:51;;;;;;;10.93;5.82;;;;;;;;;;10403776;28;20087;-58
2024/02/03 20:33:52;;;;;;;12.65;5.20;;;;;;;;;;10405123;28;20465;-59
2024/02/03 20:38:53;;;;;;;14.52;6.35;;;;;;;;;;10403610;28;20850;-60
2024/02/03 20:43:53;;;;;;;12.77;5.07;;;;;;;;;;10404311;28;20030;-59
2024/02/03 20:48:54;;;;;;;12.15;5.60;;;;;;;;;;10403498;28;20025;-59
2024/02/03 20:53:55;;;;;;;9.50;4.95;;;;;;;;;;10408035;28;20568;-59
2024/02/03 20:58:56;;;;;;;13.95;5.45;;;;;;;;;;10412157;28;20160;-60
2024/02/03 21:03:58;;;;;;;10.43;5.40;;;;;;;;;;10411632;28;20033;-63
2024/02/03 21:09:00;;;;;;;10.45;5.82;;;;;;;;;;10411671;28;20029;-58
2024/02/03 21:14:01;;;;;;;9.60;5.63;;;;;;;;;;10410902;28;20030;-60
2024/02/03 21:19:02;;;;;;;9.77;5.40;;;;;;;;;;10409393;28;20054;-60
2024/02/03 21:24:04;;;;;;;11.30;5.72;;;;;;;;;;10411413;28;20037;-60
2024/02/03 21:29:05;;;;;;;8.10;4.82;;;;;;;;;;10394727;28;20400;-58
2024/02/03 21:34:05;;;;;;;13.73;5.85;;;;;;;;;;10409395;28;20103;-59
2024/02/03 21:39:09;;;;;;;9.02;4.93;;;;;;;;;;10399028;28;20049;-59
2024/02/03 21:44:10;;;;;;;8.23;4.90;;;;;;;;;;10410287;28;20032;-59
2024/02/03 21:49:10;;;;;;;9.38;5.53;;;;;;;;;;10391051;28;20030;-61
2024/02/03 21:54:11;;;;;;;7.35;5.13;;;;;;;;;;10389235;28;20550;-59
2024/02/03 21:59:12;;;;;;;15.32;5.43;;;;;;;;;;10397058;28;20060;-60
2024/02/03 22:04:14;;;;;;;10.70;5.40;;;;;;;;;;10406640;28;20034;-60
2024/02/03 22:09:15;;;;;;;7.15;5.40;;;;;;;;;;10407667;28;20059;-61
2024/02/03 22:14:16;;;;;;;7.53;5.18;;;;;;;;;;10408000;28;20036;-59
2024/02/03 22:19:17;;;;;;;9.02;5.90;;;;;;;;;;10407343;28;20029;-61
2024/02/03 22:24:17;;;;;;;12.93;6.07;;;;;;;;;;10407610;28;20038;-60
2024/02/03 22:29:18;;;;;;;10.13;5.68;;;;;;;;;;10402689;28;20519;-62
2024/02/03 22:34:19;;;;;;;10.40;5.30;;;;;;;;;;10394445;28;20061;-65
2024/02/03 22:39:19;;;;;;;8.27;5.15;;;;;;;;;;10374276;28;20083;-65
2024/02/03 22:44:20;;;;;;;9.70;5.40;;;;;;;;;;10366223;28;20025;-67
2024/02/03 22:49:22;;;;;;;10.95;5.60;;;;;;;;;;10367032;28;20022;-63
2024/02/03 22:54:22;;;;;;;7.88;5.05;;;;;;;;;;10366151;28;20024;-61
2024/02/03 22:59:23;;;;;;;8.23;5.30;;;;;;;;;;10366375;28;20034;-60
2024/02/03 23:04:23;;;;;;;6.70;4.75;;;;;;;;;;10366239;28;20049;-61
2024/02/03 23:09:24;;;;;;;6.63;5.15;;;;;;;;;;10366572;28;20030;-60
2024/02/03 23:14:25;;;;;;;10.70;5.38;;;;;;;;;;10365490;28;20033;-61
2024/02/03 23:19:25;;;;;;;9.95;5.63;;;;;;;;;;10366124;28;20477;-60
2024/02/03 23:24:26;;;;;;;7.55;4.60;;;;;;;;;;10366321;28;20596;-63
2024/02/03 23:29:26;;;;;;;8.63;5.40;;;;;;;;;;10365405;28;20030;-61
2024/02/03 23:34:29;;;;;;;7.68;5.00;;;;;;;;;;10365365;28;20036;-62
2024/02/03 23:39:29;;;;;;;8.63;5.47;;;;;;;;;;10364736;28;20053;-60
2024/02/03 23:44:30;;;;;;;7.65;4.93;;;;;;;;;;10353483;28;20448;-61
2024/02/03 23:49:30;;;;;;;10.10;5.85;;;;;;;;;;10364122;28;20366;-60
2024/02/03 23:54:31;;;;;;;8.40;5.07;;;;;;;;;;10365547;28;20395;-61
2024/02/03 23:59:31;;;;;;;8.60;4.82;;;;;;;;;;10364655;28;20389;-61
